Time;durP1;ratioP1;P1;durP2;ratioP2;P2;SDS_P1;SDS_P2;PMS_P1;PMS_P2;Temp;Humidity;BMP_temperature;BMP_pressure;BME280_temperature;BME280_humidity;BME280_pressure;Samples;Min_cycle;Max_cycle;Signal;HPM_P1;HPM_P2
2022/05/08 00:00:33;;;;;;;15.43;3.97;;;;;;;;;;6185339;23;20072;-87
2022/05/08 00:03:00;;;;;;;11.35;3.35;;;;;;;;;;6161576;23;20454;-87
2022/05/08 00:05:26;;;;;;;15.10;3.38;;;;;;;;;;6186227;23;20032;-87
2022/05/08 00:07:52;;;;;;;10.82;4.13;;;;;;;;;;6185337;23;20362;-87
2022/05/08 00:10:18;;;;;;;11.75;4.07;;;;;;;;;;6185499;23;20458;-87
2022/05/08 00:12:44;;;;;;;10.80;3.22;;;;;;;;;;6161710;23;20106;-87
2022/05/08 00:15:11;;;;;;;8.75;3.38;;;;;;;;;;6185210;23;20028;-87
2022/05/08 00:17:37;;;;;;;9.13;4.13;;;;;;;;;;6161023;23;20454;-88
2022/05/08 00:20:07;;;;;;;9.00;3.45;;;;;;;;;;6185256;23;20024;-88
2022/05/08 00:22:34;;;;;;;11.68;3.28;;;;;;;;;;6160295;23;20115;-88
2022/05/08 00:25:00;;;;;;;20.17;4.07;;;;;;;;;;6184812;23;20386;-87
2022/05/08 00:27:26;;;;;;;11.15;3.08;;;;;;;;;;6160263;23;20021;-87
2022/05/08 00:29:52;;;;;;;8.82;3.60;;;;;;;;;;6160313;23;20454;-87
2022/05/08 00:32:20;;;;;;;11.20;3.53;;;;;;;;;;6160788;23;20546;-88
2022/05/08 00:34:46;;;;;;;10.32;2.92;;;;;;;;;;6160117;23;20020;-87
2022/05/08 00:37:12;;;;;;;9.68;3.85;;;;;;;;;;6160234;23;20017;-87
2022/05/08 00:39:38;;;;;;;15.50;4.05;;;;;;;;;;6160922;23;20312;-87
2022/05/08 00:42:04;;;;;;;12.68;3.60;;;;;;;;;;6160124;23;20466;-87
2022/05/08 00:44:30;;;;;;;12.68;4.20;;;;;;;;;;6160419;23;20025;-88
2022/05/08 00:46:56;;;;;;;10.02;3.88;;;;;;;;;;6160228;23;20071;-88
2022/05/08 00:49:22;;;;;;;16.35;4.72;;;;;;;;;;6186154;23;20048;-88
2022/05/08 00:51:49;;;;;;;11.55;3.85;;;;;;;;;;6184910;23;20021;-87
2022/05/08 00:54:15;;;;;;;18.05;5.78;;;;;;;;;;6159969;23;20020;-88
2022/05/08 00:56:41;;;;;;;8.73;4.55;;;;;;;;;;6160110;23;20020;-87
2022/05/08 00:59:08;;;;;;;10.82;4.03;;;;;;;;;;6160146;23;20116;-87
2022/05/08 01:01:34;;;;;;;15.43;5.50;;;;;;;;;;6160168;23;20032;-87
2022/05/08 01:04:00;;;;;;;16.15;4.47;;;;;;;;;;6160112;23;20104;-88
2022/05/08 01:06:27;;;;;;;14.05;4.05;;;;;;;;;;6161647;23;20016;-88
2022/05/08 01:08:54;;;;;;;9.18;3.80;;;;;;;;;;6184930;23;20052;-88
2022/05/08 01:11:21;;;;;;;15.98;3.40;;;;;;;;;;6187075;23;20338;-88
2022/05/08 01:13:47;;;;;;;13.90;3.60;;;;;;;;;;6184697;23;20032;-87
2022/05/08 01:16:15;;;;;;;11.52;3.38;;;;;;;;;;6184621;23;20108;-87
2022/05/08 01:18:41;;;;;;;9.35;3.25;;;;;;;;;;6160011;23;20021;-88
2022/05/08 01:21:09;;;;;;;11.07;3.90;;;;;;;;;;6185477;23;20434;-87
2022/05/08 01:23:35;;;;;;;6.57;3.17;;;;;;;;;;6135815;23;20470;-87
2022/05/08 01:26:01;;;;;;;10.13;3.88;;;;;;;;;;6160045;23;20017;-87
2022/05/08 01:28:29;;;;;;;7.93;3.10;;;;;;;;;;6159715;23;20391;-87
2022/05/08 01:30:56;;;;;;;9.98;3.22;;;;;;;;;;6184536;23;20083;-88
2022/05/08 01:33:22;;;;;;;6.63;2.20;;;;;;;;;;6160096;23;20062;-87
2022/05/08 01:35:49;;;;;;;2.15;1.92;;;;;;;;;;6159886;23;20347;-87
2022/05/08 01:38:16;;;;;;;20.33;2.40;;;;;;;;;;6184567;23;20021;-88
2022/05/08 01:40:43;;;;;;;7.90;2.63;;;;;;;;;;6186051;23;20025;-88
2022/05/08 01:43:10;;;;;;;13.65;3.08;;;;;;;;;;6159744;23;20071;-87
2022/05/08 01:45:36;;;;;;;6.47;2.83;;;;;;;;;;6186055;23;20064;-87
2022/05/08 01:50:48;;;;;;;6.95;3.75;;;;;;;;;;6184514;23;20040;-88
2022/05/08 01:53:14;;;;;;;15.00;3.50;;;;;;;;;;6159489;23;20025;-88
2022/05/08 01:55:40;;;;;;;11.15;3.75;;;;;;;;;;6160191;23;20378;-88
2022/05/08 01:58:07;;;;;;;7.50;2.80;;;;;;;;;;6159385;23;20473;-88
2022/05/08 02:00:33;;;;;;;5.05;2.28;;;;;;;;;;6184624;23;20025;-88
2022/05/08 02:03:00;;;;;;;5.63;2.72;;;;;;;;;;6159324;23;20032;-88
2022/05/08 02:05:28;;;;;;;12.55;3.45;;;;;;;;;;6160125;23;20076;-88
2022/05/08 02:07:54;;;;;;;10.20;3.78;;;;;;;;;;6184273;23;20036;-88
2022/05/08 02:10:20;;;;;;;7.68;3.63;;;;;;;;;;6160752;23;20017;-88
2022/05/08 02:12:46;;;;;;;16.13;4.53;;;;;;;;;;6184187;23;20021;-88
2022/05/08 02:15:13;;;;;;;3.97;2.90;;;;;;;;;;6159570;23;20028;-88
2022/05/08 02:17:39;;;;;;;9.43;3.33;;;;;;;;;;6186094;23;20022;-87
2022/05/08 02:20:06;;;;;;;10.38;3.92;;;;;;;;;;6184180;23;20463;-88
2022/05/08 02:22:37;;;;;;;6.63;3.58;;;;;;;;;;6159372;23;20047;-87
2022/05/08 02:25:04;;;;;;;13.27;4.40;;;;;;;;;;6185785;23;20024;-88
2022/05/08 02:27:40;;;;;;;10.85;3.50;;;;;;;;;;6185442;23;20067;-87
2022/05/08 02:30:10;;;;;;;14.23;4.20;;;;;;;;;;6159301;23;20071;-88
2022/05/08 02:32:37;;;;;;;8.90;3.45;;;;;;;;;;6184066;23;20048;-87
2022/05/08 02:35:04;;;;;;;14.85;5.18;;;;;;;;;;6160267;23;20025;-87
2022/05/08 02:37:30;;;;;;;13.52;4.60;;;;;;;;;;6184303;23;20025;-88
2022/05/08 02:39:56;;;;;;;6.63;3.30;;;;;;;;;;6159399;23;20017;-87
2022/05/08 02:42:22;;;;;;;13.60;3.92;;;;;;;;;;6184276;23;20100;-88
2022/05/08 02:44:48;;;;;;;9.00;3.17;;;;;;;;;;6159466;23;20044;-88
2022/05/08 02:47:14;;;;;;;13.68;4.22;;;;;;;;;;6159474;23;20017;-88
2022/05/08 02:49:40;;;;;;;8.63;3.42;;;;;;;;;;6159246;23;20029;-88
2022/05/08 02:52:07;;;;;;;13.70;2.83;;;;;;;;;;6184085;23;20100;-88
2022/05/08 02:54:33;;;;;;;5.43;3.00;;;;;;;;;;6184026;23;20466;-87
2022/05/08 02:59:44;;;;;;;13.13;3.72;;;;;;;;;;6185857;23;20032;-86
2022/05/08 03:02:10;;;;;;;12.60;4.15;;;;;;;;;;6161011;23;20466;-87
2022/05/08 03:04:36;;;;;;;6.90;3.72;;;;;;;;;;6160977;23;20028;-87
2022/05/08 03:07:02;;;;;;;17.77;3.85;;;;;;;;;;6185818;23;20096;-88
2022/05/08 03:09:29;;;;;;;11.63;4.80;;;;;;;;;;6161276;23;20017;-88
2022/05/08 03:11:55;;;;;;;13.85;4.07;;;;;;;;;;6161662;23;20096;-88
2022/05/08 03:14:21;;;;;;;7.32;2.72;;;;;;;;;;6161637;23;20017;-88
2022/05/08 03:16:47;;;;;;;8.57;3.15;;;;;;;;;;6186037;23;20025;-88
2022/05/08 03:19:14;;;;;;;9.65;3.20;;;;;;;;;;6161767;23;20024;-87
2022/05/08 03:21:40;;;;;;;11.35;4.10;;;;;;;;;;6186073;23;20147;-88
2022/05/08 03:24:07;;;;;;;11.20;4.15;;;;;;;;;;6161114;23;20021;-87
2022/05/08 03:26:34;;;;;;;7.88;3.40;;;;;;;;;;6185283;23;20063;-89
2022/05/08 03:29:00;;;;;;;14.38;4.05;;;;;;;;;;6160633;23;20035;-88
2022/05/08 03:31:26;;;;;;;8.77;3.45;;;;;;;;;;6161034;23;20025;-87
2022/05/08 03:33:52;;;;;;;10.95;3.97;;;;;;;;;;6160704;23;20021;-88
2022/05/08 03:36:18;;;;;;;9.23;4.00;;;;;;;;;;6186038;23;20471;-87
2022/05/08 03:38:45;;;;;;;9.93;4.28;;;;;;;;;;6186246;23;20028;-88
2022/05/08 03:41:18;;;;;;;7.93;3.67;;;;;;;;;;6187059;23;20128;-87
2022/05/08 03:43:47;;;;;;;8.43;4.00;;;;;;;;;;6161675;23;20104;-88
2022/05/08 03:46:13;;;;;;;8.25;4.85;;;;;;;;;;6186200;23;20067;-88
2022/05/08 03:48:39;;;;;;;7.53;3.33;;;;;;;;;;6160801;23;20025;-88
2022/05/08 03:51:05;;;;;;;15.30;3.40;;;;;;;;;;6185199;23;20092;-88
2022/05/08 03:53:32;;;;;;;11.95;3.90;;;;;;;;;;6160627;23;20032;-88
2022/05/08 03:55:58;;;;;;;11.43;4.07;;;;;;;;;;6160677;23;20436;-88
2022/05/08 03:58:24;;;;;;;9.13;3.47;;;;;;;;;;6160585;23;20362;-88
2022/05/08 04:00:50;;;;;;;6.30;3.17;;;;;;;;;;6161969;23;20025;-88
2022/05/08 04:03:16;;;;;;;11.48;3.58;;;;;;;;;;6184965;23;20481;-88
2022/05/08 04:05:42;;;;;;;7.15;2.63;;;;;;;;;;6161808;23;20058;-88
2022/05/08 04:08:08;;;;;;;11.40;4.22;;;;;;;;;;6160526;23;20025;-88
2022/05/08 04:10:34;;;;;;;7.90;3.30;;;;;;;;;;6185734;23;20036;-88
2022/05/08 04:13:00;;;;;;;6.15;2.78;;;;;;;;;;6161728;23;20025;-89
2022/05/08 04:18:11;;;;;;;6.88;3.30;;;;;;;;;;6186281;23;20028;-88
2022/05/08 04:20:37;;;;;;;6.60;3.50;;;;;;;;;;6186572;23;20025;-88
2022/05/08 04:25:55;;;;;;;8.63;3.15;;;;;;;;;;6184861;23;20017;-89
2022/05/08 04:28:21;;;;;;;10.63;2.53;;;;;;;;;;6160750;23;20032;-87
2022/05/08 04:30:48;;;;;;;8.55;3.92;;;;;;;;;;6160132;23;20017;-88
2022/05/08 04:33:14;;;;;;;15.18;3.97;;;;;;;;;;6160286;23;20025;-87
2022/05/08 04:35:40;;;;;;;7.43;4.18;;;;;;;;;;6160019;23;20025;-88
2022/05/08 04:38:06;;;;;;;6.78;3.22;;;;;;;;;;6184987;23;20462;-88
2022/05/08 04:40:32;;;;;;;12.18;3.33;;;;;;;;;;6186542;23;20024;-88
2022/05/08 04:42:59;;;;;;;6.78;3.50;;;;;;;;;;6160426;23;20513;-86
2022/05/08 04:45:25;;;;;;;8.48;3.05;;;;;;;;;;6185104;23;20083;-87
2022/05/08 04:47:51;;;;;;;9.80;4.15;;;;;;;;;;6184872;23;20060;-88
2022/05/08 04:50:17;;;;;;;7.43;3.60;;;;;;;;;;6160314;23;20021;-90
2022/05/08 04:52:43;;;;;;;21.55;3.80;;;;;;;;;;6161705;23;20027;-87
2022/05/08 04:55:10;;;;;;;17.67;3.45;;;;;;;;;;6160302;23;20053;-90
2022/05/08 04:57:36;;;;;;;5.95;3.17;;;;;;;;;;6160181;23;20029;-87
2022/05/08 05:00:02;;;;;;;11.48;3.80;;;;;;;;;;6160336;23;20021;-88
2022/05/08 05:02:29;;;;;;;12.88;3.53;;;;;;;;;;6184944;23;20021;-88
2022/05/08 05:04:55;;;;;;;8.25;3.60;;;;;;;;;;6160006;23;20023;-87
2022/05/08 05:07:21;;;;;;;5.25;3.10;;;;;;;;;;6160327;23;20025;-89
2022/05/08 05:09:47;;;;;;;5.63;2.78;;;;;;;;;;6185192;23;20103;-87
2022/05/08 05:12:13;;;;;;;8.80;2.80;;;;;;;;;;6160271;23;20062;-90
2022/05/08 05:14:39;;;;;;;13.38;4.28;;;;;;;;;;6160280;23;20091;-92
2022/05/08 05:17:05;;;;;;;9.38;3.40;;;;;;;;;;6136118;23;20053;-88
2022/05/08 05:19:31;;;;;;;6.03;2.78;;;;;;;;;;6184607;23;20028;-87
2022/05/08 05:21:57;;;;;;;6.90;2.75;;;;;;;;;;6184555;23;20032;-88
2022/05/08 05:24:23;;;;;;;12.93;3.47;;;;;;;;;;6161073;23;20147;-88
2022/05/08 05:26:51;;;;;;;5.20;2.92;;;;;;;;;;6184509;23;20472;-88
2022/05/08 05:29:17;;;;;;;10.48;4.57;;;;;;;;;;6161413;23;20100;-89
2022/05/08 05:31:43;;;;;;;9.20;3.25;;;;;;;;;;6161679;23;20148;-88
2022/05/08 05:34:10;;;;;;;5.85;2.97;;;;;;;;;;6161138;23;20056;-89
2022/05/08 05:36:36;;;;;;;7.78;3.47;;;;;;;;;;6160230;23;20405;-87
2022/05/08 05:39:02;;;;;;;8.30;3.50;;;;;;;;;;6159892;23;20024;-88
2022/05/08 05:41:29;;;;;;;6.90;2.58;;;;;;;;;;6159767;23;20075;-87
2022/05/08 05:43:55;;;;;;;7.05;2.65;;;;;;;;;;6159888;23;20085;-87
2022/05/08 05:49:05;;;;;;;12.27;3.13;;;;;;;;;;6184773;23;20450;-89
2022/05/08 05:51:31;;;;;;;14.05;2.83;;;;;;;;;;6160600;23;20101;-95
2022/05/08 05:53:57;;;;;;;8.15;3.40;;;;;;;;;;6160674;23;20362;-94
2022/05/08 05:56:23;;;;;;;11.48;3.65;;;;;;;;;;6160670;23;20470;-91
2022/05/08 05:58:49;;;;;;;6.63;2.90;;;;;;;;;;6160261;23;20028;-94
2022/05/08 06:01:17;;;;;;;7.32;3.53;;;;;;;;;;6160142;23;20105;-87
2022/05/08 06:03:43;;;;;;;5.05;3.13;;;;;;;;;;6184636;23;20075;-88
2022/05/08 06:06:09;;;;;;;7.72;3.08;;;;;;;;;;6184472;23;20028;-89
2022/05/08 06:08:35;;;;;;;11.65;3.13;;;;;;;;;;6159814;23;20025;-88
2022/05/08 06:11:01;;;;;;;5.38;2.60;;;;;;;;;;6159914;23;20071;-88
2022/05/08 06:13:27;;;;;;;7.20;2.70;;;;;;;;;;6160308;23;20025;-89
2022/05/08 06:15:53;;;;;;;11.68;3.15;;;;;;;;;;6184576;23;20024;-88
2022/05/08 06:18:19;;;;;;;4.13;2.47;;;;;;;;;;6184345;23;20021;-89
2022/05/08 06:20:45;;;;;;;5.63;2.92;;;;;;;;;;6159722;23;20022;-88
2022/05/08 06:23:11;;;;;;;12.55;3.00;;;;;;;;;;6160741;23;20025;-90
2022/05/08 06:25:41;;;;;;;6.53;2.92;;;;;;;;;;6159967;23;20028;-91
2022/05/08 06:28:08;;;;;;;5.68;2.40;;;;;;;;;;6159951;23;20024;-91
2022/05/08 06:30:34;;;;;;;6.90;2.38;;;;;;;;;;6159743;23;20025;-89
2022/05/08 06:33:00;;;;;;;6.97;2.20;;;;;;;;;;6161338;23;20034;-90
2022/05/08 06:35:29;;;;;;;5.45;2.70;;;;;;;;;;6187445;23;20016;-89
2022/05/08 06:37:55;;;;;;;7.07;3.10;;;;;;;;;;6162034;23;20032;-88
2022/05/08 06:40:21;;;;;;;10.88;2.20;;;;;;;;;;6161435;23;20346;-88
2022/05/08 06:42:47;;;;;;;7.60;2.38;;;;;;;;;;6187838;23;20029;-88
2022/05/08 06:45:13;;;;;;;8.00;2.80;;;;;;;;;;6187351;23;20118;-88
2022/05/08 06:47:41;;;;;;;8.90;2.60;;;;;;;;;;6185854;23;20029;-87
2022/05/08 06:50:08;;;;;;;13.80;2.55;;;;;;;;;;6187896;23;20021;-88
2022/05/08 06:52:34;;;;;;;13.00;2.50;;;;;;;;;;6162405;23;20025;-90
2022/05/08 06:55:00;;;;;;;5.65;3.05;;;;;;;;;;6186063;23;20099;-88
2022/05/08 06:57:26;;;;;;;12.65;3.55;;;;;;;;;;6185987;23;20032;-88
2022/05/08 07:02:43;;;;;;;9.60;2.22;;;;;;;;;;6186286;23;20027;-89
2022/05/08 07:05:10;;;;;;;8.70;2.80;;;;;;;;;;6161138;23;20455;-88
2022/05/08 07:07:36;;;;;;;10.25;3.08;;;;;;;;;;6160942;23;20048;-88
2022/05/08 07:10:02;;;;;;;11.13;2.42;;;;;;;;;;6161036;23;20032;-89
2022/05/08 07:12:28;;;;;;;12.65;2.90;;;;;;;;;;6161274;23;20156;-87
2022/05/08 07:14:55;;;;;;;10.25;3.03;;;;;;;;;;6161339;23;20025;-88
2022/05/08 07:17:21;;;;;;;10.43;2.78;;;;;;;;;;6161325;23;20017;-91
2022/05/08 07:19:48;;;;;;;9.70;2.95;;;;;;;;;;6161385;23;20328;-89
2022/05/08 07:22:17;;;;;;;7.82;2.50;;;;;;;;;;6161289;23;20150;-90
2022/05/08 07:24:43;;;;;;;10.27;3.35;;;;;;;;;;6160874;23;20021;-88
2022/05/08 07:27:11;;;;;;;11.48;2.80;;;;;;;;;;6185699;23;20028;-90
2022/05/08 07:29:46;;;;;;;16.95;2.42;;;;;;;;;;6163355;23;20053;-91
2022/05/08 07:32:12;;;;;;;4.47;1.98;;;;;;;;;;6162059;23;20013;-92
2022/05/08 07:37:23;;;;;;;5.65;2.30;;;10.30;99.90;;;;;;6186221;23;20017;-92
2022/05/08 07:39:49;;;;;;;5.85;2.45;;;;;;;;;;6161443;23;20104;-90
2022/05/08 07:42:15;;;;;;;11.38;2.33;;;;;;;;;;6162147;23;20021;-92
2022/05/08 07:44:41;;;;;;;7.95;2.20;;;;;;;;;;6161707;23;20101;-92
2022/05/08 07:47:07;;;;;;;8.07;2.25;;;;;;;;;;6161904;23;20025;-91
2022/05/08 07:49:33;;;;;;;11.15;2.45;;;;;;;;;;6186872;23;20097;-92
2022/05/08 07:52:00;;;;;;;7.35;2.70;;;;;;;;;;6188595;23;20021;-93
2022/05/08 07:54:26;;;;;;;12.40;2.50;;;;;;;;;;6162167;23;20028;-93
2022/05/08 07:56:52;;;;;;;5.97;2.10;;;;;;;;;;6162487;23;20028;-92
2022/05/08 07:59:18;;;;;;;6.25;2.25;;;;;;;;;;6187501;23;20123;-92
2022/05/08 08:01:44;;;;;;;10.02;2.40;;;;;;;;;;6186337;23;20028;-94
2022/05/08 08:04:10;;;;;;;8.68;2.55;;;;;;;;;;6161451;23;20359;-92
2022/05/08 08:06:36;;;;;;;4.97;2.35;;;;;;;;;;6186640;23;20017;-93
2022/05/08 08:09:04;;;;;;;7.25;2.33;;;;;;;;;;6161510;23;20091;-93
2022/05/08 08:11:31;;;;;;;6.85;2.30;;;;;;;;;;6161166;23;20048;-90
2022/05/08 08:13:57;;;;;;;13.60;2.90;;;;;;;;;;6161039;23;20028;-90
2022/05/08 08:16:23;;;;;;;12.48;2.50;;;;;;;;;;6185708;23;20025;-89
2022/05/08 08:18:49;;;;;;;12.18;2.85;;;;;;;;;;6187080;23;20016;-90
2022/05/08 08:21:16;;;;;;;10.50;3.03;;;;;;;;;;6186575;23;20021;-91
2022/05/08 08:23:43;;;;;;;18.70;2.63;;;;;;;;;;6186608;23;20056;-91
2022/05/08 08:26:10;;;;;;;7.55;2.60;;;;;;;;;;6160235;23;20024;-90
2022/05/08 08:28:36;;;;;;;7.75;2.80;;;;;;;;;;6160003;23;20063;-89
2022/05/08 08:31:02;;;;;;;12.90;2.67;;;;;;;;;;6160212;23;20458;-89
2022/05/08 08:33:30;;;;;;;11.23;2.72;;;;;;;;;;6160104;23;20028;-89
2022/05/08 08:35:58;;;;;;;8.52;2.40;;;;;;;;;;6185960;23;20017;-94
2022/05/08 08:38:25;;;;;;;4.88;2.50;;;;;;;;;;6162435;23;20028;-93
2022/05/08 08:40:51;;;;;;;8.88;2.65;;;;;;;;;;6161849;23;20025;-94
2022/05/08 08:43:17;;;;;;;10.18;3.38;;;;;;;;;;6163045;23;20024;-95
2022/05/08 08:48:34;;;;;;;7.35;2.53;;;;;;;;;;6188255;23;20029;-94
2022/05/08 08:51:02;;;;;;;11.63;2.90;;;;;;;;;;6162833;23;20021;-94
2022/05/08 08:53:28;;;;;;;8.45;2.53;;;;;;;;;;6163305;23;20028;-95
2022/05/08 08:55:55;;;;;;;11.52;2.08;;;;;;;;;;6191124;23;20025;-95
2022/05/08 08:58:21;;;;;;;10.82;2.50;;;;;;;;;;6189935;23;20021;-92
2022/05/08 09:00:51;;;;;;;8.10;3.13;;;;;;;;;;6192062;23;20032;-93
2022/05/08 09:03:19;;;;;;;7.72;2.95;;;;;;;;;;6166564;23;20336;-93
2022/05/08 09:05:45;;;;;;;8.40;2.80;;;;;;;;;;6168694;23;20021;-92
2022/05/08 09:08:24;;;;;;;10.40;3.70;;;;;;;;;;6164287;23;20048;-92
2022/05/08 09:10:51;;;;;;;6.00;1.90;;;;;;;;;;6172396;23;20021;-96
2022/05/08 11:07:45;;;;;;;;;;;;;;;;;;;;;
2022/05/08 11:36:04;;;;;;;6.05;2.70;;;;;;;;;;5716784;24;20035;-94
2022/05/08 12:48:49;;;;;;;13.18;3.05;;;;;;;;;;6346598;22;20025;-96
2022/05/08 13:05:32;;;;;;;9.63;3.30;;;;;;;;;;4971147;28;20109;-90
2022/05/08 13:08:19;;;;;;;;;;;;;;;;;;;;;
2022/05/08 13:14:47;;;;;;;6.97;2.15;;;;;;;;;;4841953;29;20062;-90
2022/05/08 13:17:23;;;;;;;3.65;1.77;;;;;;;;;;4855884;29;20182;-90
2022/05/08 13:20:19;;;;;;;7.45;2.47;;;;;;;;;;4872958;29;20061;-92
2022/05/08 13:23:16;;;;;;;;;;;;;;;;;;;;;
2022/05/08 13:26:12;;;;;;;7.78;2.70;;;16.20;99.90;;;;;;5231051;22;20500;-91
2022/05/08 13:28:52;;;;;;;9.10;1.90;;;;;;;;;;5095743;28;20178;-91
2022/05/08 13:31:39;;;;;;;8.32;2.60;;;;;;;;;;5091358;28;20048;-90
2022/05/08 13:34:32;;;;;;;8.95;3.28;;;;;;;;;;5077686;28;20046;-91
2022/05/08 13:37:31;;;;;;;6.25;2.17;;;;;;;;;;5078370;28;20089;-90
2022/05/08 13:40:30;;;;;;;;;;;;;;;;;;;;;
2022/05/08 13:43:14;;;;;;;6.13;2.03;;;;;;;;;;5092004;28;20043;-89
2022/05/08 13:46:23;;;;;;;7.10;2.28;;;;;;;;;;5096991;28;20130;-90
2022/05/08 13:56:01;;;;;;;11.23;2.72;;;16.60;99.90;;;;;;4878102;29;20109;-91
2022/05/08 14:02:58;;;;;;;;;;;;;;;;;;;;;
2022/05/08 14:06:04;;;;;;;;;;;16.90;99.90;;;;;;4650160;30;20062;-90
2022/05/08 14:14:00;;;;;;;9.30;2.35;;;16.60;99.90;;;;;;4973835;28;20055;-92
2022/05/08 14:17:09;;;;;;;8.05;2.00;;;16.90;99.90;;;;;;4877310;29;20084;-92
2022/05/08 15:00:42;;;;;;;;;;;;;;;;;;;;;
2022/05/08 15:04:18;;;;;;;;;;;;;;;;;;;;;
2022/05/08 15:22:23;;;;;;;12.75;3.83;;;;;;;;;;4977993;23;20055;-92
2022/05/08 15:24:59;;;;;;;15.07;2.63;;;;;;;;;;4957779;29;20055;-92
2022/05/08 15:27:31;;;;;;;;;;;16.90;99.90;;;;;;4942115;29;20048;-91
2022/05/08 15:34:28;;;;;;;6.75;2.70;;;16.70;99.90;;;;;;4881114;29;20132;-91
2022/05/08 15:40:59;;;;;;;8.38;3.08;;;;;;;;;;4853085;23;20065;-92
2022/05/08 15:43:38;;;;;;;12.98;3.00;;;;;;;;;;4942577;29;20051;-95
2022/05/08 15:46:04;;;;;;;9.63;2.28;;;;;;;;;;4957563;29;20178;-90
2022/05/08 15:48:31;;;;;;;5.32;2.03;;;;;;;;;;4956934;29;20047;-85
2022/05/08 15:50:58;;;;;;;7.85;2.78;;;;;;;;;;4941414;29;20526;-87
2022/05/08 15:53:24;;;;;;;7.68;3.10;;;;;;;;;;4958762;28;20102;-86
2022/05/08 15:55:50;;;;;;;11.75;2.92;;;17.20;99.90;;;;;;4957304;29;20039;-88
2022/05/08 15:58:17;;;;;;;12.25;3.95;;;;;;;;;;4941670;29;20047;-87
2022/05/08 16:00:44;;;;;;;13.43;2.40;;;17.10;99.90;;;;;;4941435;29;20057;-85
2022/05/08 16:03:10;;;;;;;12.77;2.75;;;;;;;;;;4941125;29;20043;-86
2022/05/08 16:05:36;;;;;;;8.05;2.70;;;17.20;99.90;;;;;;4957854;29;20055;-85
2022/05/08 16:08:03;;;;;;;8.70;2.75;;;;;;;;;;4959279;28;20493;-86
2022/05/08 16:10:29;;;;;;;12.18;3.13;;;;;;;;;;4957688;28;20105;-85
2022/05/08 16:24:10;;;;;;;7.55;2.50;;;;;;;;;;4965631;23;20055;-86
2022/05/08 16:26:43;;;;;;;10.32;2.95;;;;;;;;;;4954587;29;20047;-88
2022/05/08 16:29:13;;;;;;;10.35;2.55;;;;;;;;;;4971293;29;20058;-88
2022/05/08 16:31:39;;;;;;;7.88;2.25;;;;;;;;;;4955083;29;20042;-86
2022/05/08 16:34:07;;;;;;;9.10;2.35;;;;;;;;;;4971921;29;20055;-87
2022/05/08 16:36:35;;;;;;;13.73;2.75;;;17.00;99.90;;;;;;4972164;29;20044;-88
2022/05/08 16:39:02;;;;;;;10.32;2.70;;;17.10;99.90;;;;;;4959985;29;20094;-89
2022/05/08 16:41:28;;;;;;;7.25;3.28;;;;;;;;;;4941188;29;20039;-88
2022/05/08 16:43:59;;;;;;;14.02;3.92;;;16.80;99.90;;;;;;4940788;29;20068;-88
2022/05/08 16:46:25;;;;;;;8.57;2.65;;;;;;;;;;4955984;29;20055;-87
2022/05/08 16:48:51;;;;;;;12.23;2.08;;;;;;;;;;4956025;29;20495;-87
2022/05/08 16:51:18;;;;;;;4.85;2.25;;;;;;;;;;4942547;29;20047;-87
2022/05/08 16:53:44;;;;;;;11.43;3.20;;;;;;;;;;4940560;29;20057;-88
2022/05/08 16:56:10;;;;;;;9.65;2.83;;;;;;;;;;4941076;29;20047;-89
2022/05/08 16:58:36;;;;;;;8.02;3.13;;;;;;;;;;4956647;29;20055;-88
2022/05/08 17:01:05;;;;;;;11.02;2.40;;;;;;;;;;4940037;29;20039;-88
2022/05/08 17:03:34;;;;;;;13.32;2.65;;;;;;;;;;4940398;29;20105;-88
2022/05/08 17:06:07;;;;;;;8.27;2.50;;;;;;;;;;4940071;29;20409;-88
2022/05/08 17:08:33;;;;;;;4.93;2.15;;;;;;;;;;4941272;29;20074;-88
2022/05/08 17:11:03;;;;;;;4.13;2.20;;;;;;;;;;4956117;29;20079;-88
2022/05/08 17:13:30;;;;;;;11.20;3.17;;;;;;;;;;4955930;29;20097;-88
2022/05/08 17:15:56;;;;;;;6.53;2.28;;;;;;;;;;4956901;29;20098;-87
2022/05/08 17:18:22;;;;;;;10.88;2.78;;;;;;;;;;4956844;29;20047;-89
2022/05/08 17:20:51;;;;;;;10.52;2.50;;;;;;;;;;4955592;29;20387;-88
2022/05/08 17:23:17;;;;;;;12.30;2.58;;;;;;;;;;4939665;29;20073;-88
2022/05/08 17:25:43;;;;;;;7.72;2.58;;;;;;;;;;4955303;29;20505;-88
2022/05/08 17:31:10;;;;;;;7.32;2.22;;;;;;;;;;4920370;29;20056;-89
2022/05/08 17:33:37;;;;;;;9.82;2.33;;;;;;;;;;4904524;28;20405;-88
2022/05/08 17:36:03;;;;;;;9.48;2.22;;;;;;;;;;4920510;29;20048;-88
2022/05/08 17:38:29;;;;;;;12.23;2.30;;;;;;;;;;4904788;29;20055;-88
2022/05/08 17:40:58;;;;;;;4.45;1.80;;;16.70;99.90;;;;;;4920393;29;20581;-89
2022/05/08 17:43:27;;;;;;;9.45;2.58;;;;;;;;;;4920536;29;20035;-88
2022/05/08 17:45:56;;;;;;;11.98;2.92;;;;;;;;;;4904150;29;20497;-88
2022/05/08 17:48:22;;;;;;;7.78;3.05;;;;;;;;;;4905074;29;20386;-87
2022/05/08 17:50:48;;;;;;;5.72;2.40;;;;;;;;;;4904747;29;20044;-88
2022/05/08 17:53:18;;;;;;;5.00;2.33;;;;;;;;;;4904916;29;20059;-88
2022/05/08 17:55:47;;;;;;;11.43;2.63;;;;;;;;;;4904667;29;20135;-88
2022/05/08 17:58:22;;;;;;;8.82;2.33;;;16.30;99.90;;;;;;4904367;29;20082;-88
2022/05/08 18:00:51;;;;;;;5.40;1.98;;;;;;;;;;4919565;29;20083;-88
2022/05/08 18:06:04;;;;;;;6.57;2.38;;;;;;;;;;4925181;29;20416;-88
2022/05/08 18:08:32;;;;;;;8.68;2.85;;;;;;;;;;4941135;29;20078;-88
2022/05/08 18:10:59;;;;;;;10.90;2.60;;;;;;;;;;4956723;29;20058;-88
2022/05/08 18:13:26;;;;;;;9.35;2.75;;;15.20;99.90;;;;;;4940122;29;20057;-88
2022/05/08 18:15:52;;;;;;;11.40;3.13;;;;;;;;;;4957148;28;20101;-88
2022/05/08 18:18:19;;;;;;;9.82;2.58;;;;;;;;;;4939310;29;20106;-88
2022/05/08 18:20:45;;;;;;;8.48;2.47;;;;;;;;;;4956253;29;20140;-88
2022/05/08 18:23:12;;;;;;;12.15;2.97;;;;;;;;;;4954880;29;20062;-89
2022/05/08 18:25:38;;;;;;;15.20;2.97;;;;;;;;;;4939741;29;20138;-88
2022/05/08 18:28:05;;;;;;;10.63;3.63;;;;;;;;;;4939719;29;20047;-87
2022/05/08 18:30:31;;;;;;;9.10;2.60;;;;;;;;;;4938739;29;20082;-85
2022/05/08 18:32:57;;;;;;;19.05;3.13;;;;;;;;;;4956827;29;20129;-89
2022/05/08 18:35:33;;;;;;;12.13;2.30;;;;;;;;;;4956820;29;20094;-94
2022/05/08 18:37:59;;;;;;;16.00;2.85;;;;;;;;;;4957392;29;20436;-85
2022/05/08 18:40:25;;;;;;;12.57;3.05;;;;;;;;;;4943107;29;20062;-87
2022/05/08 18:42:52;;;;;;;7.43;2.97;;;;;;;;;;4957210;29;20051;-89
2022/05/08 18:45:19;;;;;;;8.77;2.70;;;;;;;;;;4942876;29;20051;-91
2022/05/08 18:47:45;;;;;;;6.80;2.25;;;;;;;;;;4961515;28;20051;-93
2022/05/08 18:50:14;;;;;;;10.75;2.67;;;;;;;;;;4959235;29;20383;-86
2022/05/08 18:52:43;;;;;;;11.35;3.58;;;;;;;;;;4956276;28;20058;-90
2022/05/08 18:55:12;;;;;;;12.80;4.25;;;;;;;;;;4943262;29;20040;-89
2022/05/08 18:57:38;;;;;;;8.93;3.15;;;;;;;;;;4943722;29;20134;-89
2022/05/08 19:00:07;;;;;;;11.73;2.28;;;;;;;;;;4943732;29;20054;-90
2022/05/08 19:02:36;;;;;;;10.45;2.85;;;;;;;;;;4943573;29;20518;-90
2022/05/08 19:05:07;;;;;;;9.55;2.92;;;;;;;;;;4944760;29;20051;-89
2022/05/08 19:07:34;;;;;;;13.88;3.05;;;;;;;;;;4942918;29;20135;-89
2022/05/08 19:10:00;;;;;;;10.77;2.55;;;;;;;;;;4959308;29;20094;-89
2022/05/08 19:12:28;;;;;;;7.65;2.63;;;;;;;;;;4942798;29;20043;-89
2022/05/08 19:14:57;;;;;;;5.55;2.72;;;;;;;;;;4958761;29;20081;-90
2022/05/08 19:17:24;;;;;;;7.75;3.10;;;;;;;;;;4958943;29;20056;-90
2022/05/08 19:19:50;;;;;;;8.95;2.97;;;;;;;;;;4958436;29;20051;-89
2022/05/08 19:22:16;;;;;;;9.95;2.88;;;;;;;;;;4959067;28;20051;-90
2022/05/08 19:24:46;;;;;;;10.15;3.08;;;;;;;;;;4958829;29;20121;-90
2022/05/08 19:27:12;;;;;;;11.70;2.97;;;;;;;;;;4960298;28;20073;-91
2022/05/08 19:29:39;;;;;;;8.43;2.90;;;;;;;;;;4959843;29;20488;-88
2022/05/08 19:40:19;;;;;;;18.30;3.63;;;;;;;;;;4958714;29;20063;-88
2022/05/08 19:42:48;;;;;;;8.23;3.03;;;;;;;;;;4958256;29;20046;-88
2022/05/08 19:45:15;;;;;;;20.13;3.38;;;;;;;;;;4941790;29;20137;-90
2022/05/08 19:47:41;;;;;;;8.02;3.33;;;;;;;;;;4958988;29;20361;-90
2022/05/08 19:50:07;;;;;;;14.45;3.83;;;;;;;;;;4941978;29;20484;-88
2022/05/08 19:52:33;;;;;;;10.07;3.47;;;;;;;;;;4941856;29;20043;-88
2022/05/08 19:55:00;;;;;;;7.10;3.03;;;;;;;;;;4941881;29;20468;-90
2022/05/08 19:57:29;;;;;;;12.25;4.47;;;;;;;;;;4942541;29;20039;-89
2022/05/08 19:59:57;;;;;;;13.77;3.42;;;;;;;;;;4959197;28;20429;-90
2022/05/08 20:02:24;;;;;;;7.82;3.30;;;;;;;;;;4942359;29;20078;-89
2022/05/08 20:04:51;;;;;;;7.85;3.10;;;;;;;;;;4957180;28;20469;-89
2022/05/08 20:07:18;;;;;;;12.90;4.45;;;;;;;;;;4958417;29;20055;-90
2022/05/08 20:09:45;;;;;;;14.35;3.13;;;;;;;;;;4957910;29;20074;-89
2022/05/08 20:12:11;;;;;;;10.48;3.40;;;;;;;;;;4958491;29;20050;-91
2022/05/08 20:14:38;;;;;;;15.05;4.22;;;;;;;;;;4941336;29;20058;-89
2022/05/08 20:17:05;;;;;;;9.55;3.72;;;;;;;;;;4958756;28;20050;-89
2022/05/08 20:19:32;;;;;;;9.77;3.28;;;;;;;;;;4940696;29;20562;-90
2022/05/08 20:22:04;;;;;;;10.18;3.03;;;;;;;;;;4956410;29;20047;-87
2022/05/08 20:24:31;;;;;;;11.75;3.92;;;;;;;;;;4956784;29;20051;-88
2022/05/08 20:26:57;;;;;;;12.68;2.88;;;;;;;;;;4957484;29;20476;-87
2022/05/08 20:29:23;;;;;;;18.17;4.05;;;;;;;;;;4940986;29;20130;-88
2022/05/08 20:31:49;;;;;;;8.68;3.70;;;;;;;;;;4941803;29;20046;-88
2022/05/08 20:34:15;;;;;;;12.82;3.92;;;;;;;;;;4956691;29;20083;-88
2022/05/08 20:36:44;;;;;;;6.97;3.53;;;;;;;;;;4940351;29;20050;-90
2022/05/08 20:39:11;;;;;;;9.90;3.78;;;;;;;;;;4940367;29;20082;-87
2022/05/08 20:41:39;;;;;;;15.23;4.28;;;;;;;;;;4957018;29;20043;-89